-eschilo — IYRY — position and weather

sailwx.info

Track history (hours):
 
Tides and Currents Weather Stations Pressure Air Temp Water Temp Dewpoint Dewpoint Depression Visibility Wind Speed Wind Dir Waves Ship Positions

-eschilo

Last reported at 2018-Jul-18 19:58 UTC. Time now 2018-Jul-18 23:58 UTC.
Position N 38°13' E 015°15'.

; draft 4.3 m.

Type: High speed craft. MMSI: 247154300.

Date/timePositionNaut miles runAvg speedWind from/ knotsBaromVisibWave heightAir tempDewpointWater temp
2018-Jul-18 19:58N 38°13' E 015°15'0 0.3
2018-Jul-18 19:30N 38°13' E 015°15'4 1.1
2018-Jul-18 16:07N 38°16' E 015°17'431.4
2018-Jul-18 16:00N 38°13' E 015°16'4 1.0
2018-Jul-18 12:27N 38°16' E 015°17'4 8.5
2018-Jul-18 12:00N 38°13' E 015°14'0 0.0
2018-Jul-18 11:31N 38°13' E 015°14'4 0.6
2018-Jul-18 05:14N 38°16' E 015°16'415.6
2018-Jul-18 05:01N 38°13' E 015°14'0 0.2
2018-Jul-18 04:31N 38°13' E 015°15'0 0.0
2018-Jul-17 16:47N 38°13' E 015°15'0 0.0
2018-Jul-17 16:29N 38°13' E 015°15'0 0.0
2018-Jul-17 15:59N 38°13' E 015°15'0 0.0
2018-Jul-17 15:29N 38°13' E 015°15'0 0.0
2018-Jul-17 14:59N 38°13' E 015°15'0 0.0
2018-Jul-17 14:29N 38°13' E 015°15'0 0.0
2018-Jul-17 13:59N 38°13' E 015°15'0 0.0
2018-Jul-17 13:29N 38°13' E 015°15'0 0.0
2018-Jul-17 12:59N 38°13' E 015°15'0 0.0
2018-Jul-17 12:29N 38°13' E 015°15'0 0.0
2018-Jul-17 11:59N 38°13' E 015°15'0 0.0
2018-Jul-17 11:30N 38°13' E 015°15'0 0.0
2018-Jul-17 11:00N 38°13' E 015°15'0 0.0
2018-Jul-17 10:30N 38°13' E 015°15'0 0.0
2018-Jul-17 10:00N 38°13' E 015°15'0 0.3
2018-Jul-17 09:30N 38°13' E 015°15'0 0.2
2018-Jul-17 09:00N 38°13' E 015°15'6 1.2
2018-Jul-17 04:19N 38°17' E 015°19'618.5
2018-Jul-17 04:01N 38°13' E 015°14'0 0.0
2018-Jul-17 03:31N 38°13' E 015°14'0 0.0
2018-Jul-17 03:01N 38°13' E 015°14'0 0.0
2018-Jul-16 18:51N 38°13' E 015°14'0 0.5
2018-Jul-16 18:27N 38°13' E 015°15'0 0.2
2018-Jul-16 18:00N 38°13' E 015°15'3 0.8
2018-Jul-16 14:04N 38°16' E 015°16'233.6
2018-Jul-16 14:01N 38°14' E 015°17'2 3.7
2018-Jul-16 13:30N 38°13' E 015°14'1 2.5
2018-Jul-16 13:01N 38°14' E 015°15'2 0.5
2018-Jul-16 09:11N 38°16' E 015°16'317.4
2018-Jul-16 09:00N 38°13' E 015°15'0 0.2
2018-Jul-16 08:30N 38°13' E 015°15'3 0.8
2018-Jul-16 04:13N 38°16' E 015°16'315.8
2018-Jul-16 04:00N 38°13' E 015°14'0 0.0
2018-Jul-16 03:27N 38°13' E 015°14'0 0.0
2018-Jul-15 18:36N 38°13' E 015°14'0 2.2
2018-Jul-15 18:31N 38°13' E 015°15'0 0.4
2018-Jul-15 18:00N 38°13' E 015°14'3 0.6
2018-Jul-15 13:57N 38°15' E 015°16'3 5.3
2018-Jul-15 13:28N 38°13' E 015°14'3 0.8
2018-Jul-15 09:19N 38°16' E 015°16'3 9.1
2018-Jul-15 08:57N 38°13' E 015°14'0 0.4
2018-Jul-15 08:29N 38°13' E 015°15'2 3.8
2018-Jul-15 08:00N 38°14' E 015°16'2 0.5
2018-Jul-15 04:16N 38°16' E 015°17'311.2
2018-Jul-15 03:58N 38°13' E 015°14'0 0.0
2018-Jul-15 03:28N 38°13' E 015°14'0 0.0
2018-Jul-15 02:58N 38°13' E 015°14'0 0.0
2018-Jul-14 18:11N 38°13' E 015°14'0 2.1
2018-Jul-14 18:01N 38°13' E 015°15'0 0.1
2018-Jul-14 14:00N 38°13' E 015°15'0 0.2
2018-Jul-14 13:30N 38°13' E 015°15'1 1.5
2018-Jul-14 13:01N 38°14' E 015°15'2 0.5
2018-Jul-14 09:09N 38°16' E 015°16'319.7
2018-Jul-14 09:00N 38°13' E 015°15'0 0.2
2018-Jul-14 08:30N 38°13' E 015°15'0 0.4
2018-Jul-14 08:00N 38°13' E 015°15'3 0.8
2018-Jul-14 04:12N 38°16' E 015°16'317.1
2018-Jul-14 04:00N 38°13' E 015°15'0 0.1
2018-Jul-14 03:27N 38°13' E 015°14'0 0.0
2018-Jul-13 17:54N 38°13' E 015°14'0 0.1
2018-Jul-13 14:01N 38°13' E 015°15'0 0.5
2018-Jul-13 13:30N 38°13' E 015°15'2 4.5
2018-Jul-13 13:01N 38°15' E 015°17'1 0.3
2018-Jul-13 09:02N 38°16' E 015°16'132.8
2018-Jul-13 09:00N 38°15' E 015°17'2 4.9
2018-Jul-13 08:30N 38°13' E 015°15'0 0.2
2018-Jul-13 08:00N 38°13' E 015°15'4 1.1
2018-Jul-13 04:17N 38°17' E 015°17'414.9
2018-Jul-13 04:00N 38°13' E 015°14'0 0.2
2018-Jul-13 03:30N 38°13' E 015°15'0 0.0
2018-Jul-12 18:20N 38°13' E 015°15'0 0.3
2018-Jul-12 18:00N 38°13' E 015°14'3 0.7
2018-Jul-12 14:07N 38°16' E 015°16'326.8
2018-Jul-12 14:01N 38°13' E 015°15'0 0.7
2018-Jul-12 13:30N 38°13' E 015°15'0 0.3
2018-Jul-12 13:01N 38°13' E 015°15'3 0.7
2018-Jul-12 08:59N 38°16' E 015°16'3 5.8
2018-Jul-12 08:30N 38°13' E 015°14'0 0.4
2018-Jul-12 08:00N 38°13' E 015°15'4 1.0
2018-Jul-12 04:15N 38°16' E 015°16'414.6
2018-Jul-12 04:00N 38°13' E 015°14'0 0.0
2018-Jul-12 03:30N 38°13' E 015°14'0 0.0
2018-Jul-12 03:00N 38°13' E 015°14'0 0.0
2018-Jul-11 18:03N 38°13' E 015°14'0 0.0
2018-Jul-11 18:00N 38°13' E 015°14'2 0.6
2018-Jul-11 13:59N 38°15' E 015°16'2 5.0
2018-Jul-11 13:30N 38°13' E 015°15'1 2.0
2018-Jul-11 13:00N 38°14' E 015°16'2 0.6
2018-Jul-11 09:02N 38°16' E 015°16'132.0
2018-Jul-11 09:00N 38°15' E 015°16'2 4.7
2018-Jul-11 08:30N 38°13' E 015°14'0 0.4
2018-Jul-11 08:00N 38°13' E 015°15'4 1.0
2018-Jul-11 04:16N 38°17' E 015°17'415.0
2018-Jul-11 04:01N 38°13' E 015°14'0 0.2
2018-Jul-11 03:31N 38°13' E 015°15'0 0.0
2018-Jul-10 18:03N 38°13' E 015°15'0 0.0
2018-Jul-10 18:00N 38°13' E 015°15'3 0.7
2018-Jul-10 14:14N 38°16' E 015°16'312.4
2018-Jul-10 14:00N 38°13' E 015°14'0 0.2
2018-Jul-10 13:30N 38°13' E 015°15'1 2.6
2018-Jul-10 13:00N 38°14' E 015°16'2 0.6
2018-Jul-10 09:04N 38°16' E 015°16'231.1
2018-Jul-10 09:00N 38°14' E 015°17'2 4.1
2018-Jul-10 08:30N 38°13' E 015°14'0 0.4
2018-Jul-10 08:00N 38°13' E 015°15'4 1.0
2018-Jul-10 04:17N 38°16' E 015°16'413.1
2018-Jul-10 04:00N 38°13' E 015°14'0 0.0
2018-Jul-10 03:30N 38°13' E 015°14'0 0.0
2018-Jul-09 19:29N 38°13' E 015°14'4 1.0
2018-Jul-09 16:03N 38°16' E 015°16'233.8
2018-Jul-09 16:00N 38°15' E 015°17'2 4.4
2018-Jul-09 15:30N 38°13' E 015°15'3 1.0
2018-Jul-09 12:14N 38°16' E 015°16'314.5
2018-Jul-09 12:00N 38°13' E 015°15'0 0.3
2018-Jul-09 11:30N 38°13' E 015°15'2 4.2
2018-Jul-09 11:00N 38°14' E 015°17'2 0.4
2018-Jul-09 05:18N 38°17' E 015°17'413.6
2018-Jul-09 05:00N 38°13' E 015°14'0 0.2
2018-Jul-09 04:30N 38°13' E 015°15'  
Track history (hours):
 
Tides and Currents Weather Stations Pressure Air Temp Water Temp Dewpoint Dewpoint Depression Visibility Wind Speed Wind Dir Waves Ship Positions

-eschilo

Last reported at 2018-Jul-18 19:58 UTC. Time now 2018-Jul-18 23:58 UTC.
Position N 38°13' E 015°15'.

; draft 4.3 m.

Type: High speed craft. MMSI: 247154300.

Date/timePositionNaut miles runAvg speedWind from/ knotsBaromVisibWave heightAir tempDewpointWater temp
2018-Jul-18 19:58N 38°13' E 015°15'0 0.3
2018-Jul-18 19:30N 38°13' E 015°15'4 1.1
2018-Jul-18 16:07N 38°16' E 015°17'431.4
2018-Jul-18 16:00N 38°13' E 015°16'4 1.0
2018-Jul-18 12:27N 38°16' E 015°17'4 8.5
2018-Jul-18 12:00N 38°13' E 015°14'0 0.0
2018-Jul-18 11:31N 38°13' E 015°14'4 0.6
2018-Jul-18 05:14N 38°16' E 015°16'415.6
2018-Jul-18 05:01N 38°13' E 015°14'0 0.2
2018-Jul-18 04:31N 38°13' E 015°15'0 0.0
2018-Jul-17 16:47N 38°13' E 015°15'0 0.0
2018-Jul-17 16:29N 38°13' E 015°15'0 0.0
2018-Jul-17 15:59N 38°13' E 015°15'0 0.0
2018-Jul-17 15:29N 38°13' E 015°15'0 0.0
2018-Jul-17 14:59N 38°13' E 015°15'0 0.0
2018-Jul-17 14:29N 38°13' E 015°15'0 0.0
2018-Jul-17 13:59N 38°13' E 015°15'0 0.0
2018-Jul-17 13:29N 38°13' E 015°15'0 0.0
2018-Jul-17 12:59N 38°13' E 015°15'0 0.0
2018-Jul-17 12:29N 38°13' E 015°15'0 0.0
2018-Jul-17 11:59N 38°13' E 015°15'0 0.0
2018-Jul-17 11:30N 38°13' E 015°15'0 0.0
2018-Jul-17 11:00N 38°13' E 015°15'0 0.0
2018-Jul-17 10:30N 38°13' E 015°15'0 0.0
2018-Jul-17 10:00N 38°13' E 015°15'0 0.3
2018-Jul-17 09:30N 38°13' E 015°15'0 0.2
2018-Jul-17 09:00N 38°13' E 015°15'6 1.2
2018-Jul-17 04:19N 38°17' E 015°19'618.5
2018-Jul-17 04:01N 38°13' E 015°14'0 0.0
2018-Jul-17 03:31N 38°13' E 015°14'0 0.0
2018-Jul-17 03:01N 38°13' E 015°14'0 0.0
2018-Jul-16 18:51N 38°13' E 015°14'0 0.5
2018-Jul-16 18:27N 38°13' E 015°15'0 0.2
2018-Jul-16 18:00N 38°13' E 015°15'3 0.8
2018-Jul-16 14:04N 38°16' E 015°16'233.6
2018-Jul-16 14:01N 38°14' E 015°17'2 3.7
2018-Jul-16 13:30N 38°13' E 015°14'1 2.5
2018-Jul-16 13:01N 38°14' E 015°15'2 0.5
2018-Jul-16 09:11N 38°16' E 015°16'317.4
2018-Jul-16 09:00N 38°13' E 015°15'0 0.2
2018-Jul-16 08:30N 38°13' E 015°15'3 0.8
2018-Jul-16 04:13N 38°16' E 015°16'315.8
2018-Jul-16 04:00N 38°13' E 015°14'0 0.0
2018-Jul-16 03:27N 38°13' E 015°14'0 0.0
2018-Jul-15 18:36N 38°13' E 015°14'0 2.2
2018-Jul-15 18:31N 38°13' E 015°15'0 0.4
2018-Jul-15 18:00N 38°13' E 015°14'3 0.6
2018-Jul-15 13:57N 38°15' E 015°16'3 5.3
2018-Jul-15 13:28N 38°13' E 015°14'3 0.8
2018-Jul-15 09:19N 38°16' E 015°16'3 9.1
2018-Jul-15 08:57N 38°13' E 015°14'0 0.4
2018-Jul-15 08:29N 38°13' E 015°15'2 3.8
2018-Jul-15 08:00N 38°14' E 015°16'2 0.5
2018-Jul-15 04:16N 38°16' E 015°17'311.2
2018-Jul-15 03:58N 38°13' E 015°14'0 0.0
2018-Jul-15 03:28N 38°13' E 015°14'0 0.0
2018-Jul-15 02:58N 38°13' E 015°14'0 0.0
2018-Jul-14 18:11N 38°13' E 015°14'0 2.1
2018-Jul-14 18:01N 38°13' E 015°15'0 0.1
2018-Jul-14 14:00N 38°13' E 015°15'0 0.2
2018-Jul-14 13:30N 38°13' E 015°15'1 1.5
2018-Jul-14 13:01N 38°14' E 015°15'2 0.5
2018-Jul-14 09:09N 38°16' E 015°16'319.7
2018-Jul-14 09:00N 38°13' E 015°15'0 0.2
2018-Jul-14 08:30N 38°13' E 015°15'0 0.4
2018-Jul-14 08:00N 38°13' E 015°15'3 0.8
2018-Jul-14 04:12N 38°16' E 015°16'317.1
2018-Jul-14 04:00N 38°13' E 015°15'0 0.1
2018-Jul-14 03:27N 38°13' E 015°14'0 0.0
2018-Jul-13 17:54N 38°13' E 015°14'0 0.1
2018-Jul-13 14:01N 38°13' E 015°15'0 0.5
2018-Jul-13 13:30N 38°13' E 015°15'2 4.5
2018-Jul-13 13:01N 38°15' E 015°17'1 0.3
2018-Jul-13 09:02N 38°16' E 015°16'132.8
2018-Jul-13 09:00N 38°15' E 015°17'2 4.9
2018-Jul-13 08:30N 38°13' E 015°15'0 0.2
2018-Jul-13 08:00N 38°13' E 015°15'4 1.1
2018-Jul-13 04:17N 38°17' E 015°17'414.9
2018-Jul-13 04:00N 38°13' E 015°14'0 0.2
2018-Jul-13 03:30N 38°13' E 015°15'0 0.0
2018-Jul-12 18:20N 38°13' E 015°15'0 0.3
2018-Jul-12 18:00N 38°13' E 015°14'3 0.7
2018-Jul-12 14:07N 38°16' E 015°16'326.8
2018-Jul-12 14:01N 38°13' E 015°15'0 0.7
2018-Jul-12 13:30N 38°13' E 015°15'0 0.3
2018-Jul-12 13:01N 38°13' E 015°15'3 0.7
2018-Jul-12 08:59N 38°16' E 015°16'3 5.8
2018-Jul-12 08:30N 38°13' E 015°14'0 0.4
2018-Jul-12 08:00N 38°13' E 015°15'4 1.0
2018-Jul-12 04:15N 38°16' E 015°16'414.6
2018-Jul-12 04:00N 38°13' E 015°14'0 0.0
2018-Jul-12 03:30N 38°13' E 015°14'0 0.0
2018-Jul-12 03:00N 38°13' E 015°14'0 0.0
2018-Jul-11 18:03N 38°13' E 015°14'0 0.0
2018-Jul-11 18:00N 38°13' E 015°14'2 0.6
2018-Jul-11 13:59N 38°15' E 015°16'2 5.0
2018-Jul-11 13:30N 38°13' E 015°15'1 2.0
2018-Jul-11 13:00N 38°14' E 015°16'2 0.6
2018-Jul-11 09:02N 38°16' E 015°16'132.0
2018-Jul-11 09:00N 38°15' E 015°16'2 4.7
2018-Jul-11 08:30N 38°13' E 015°14'0 0.4
2018-Jul-11 08:00N 38°13' E 015°15'4 1.0
2018-Jul-11 04:16N 38°17' E 015°17'415.0
2018-Jul-11 04:01N 38°13' E 015°14'0 0.2
2018-Jul-11 03:31N 38°13' E 015°15'0 0.0
2018-Jul-10 18:03N 38°13' E 015°15'0 0.0
2018-Jul-10 18:00N 38°13' E 015°15'3 0.7
2018-Jul-10 14:14N 38°16' E 015°16'312.4
2018-Jul-10 14:00N 38°13' E 015°14'0 0.2
2018-Jul-10 13:30N 38°13' E 015°15'1 2.6
2018-Jul-10 13:00N 38°14' E 015°16'2 0.6
2018-Jul-10 09:04N 38°16' E 015°16'231.1
2018-Jul-10 09:00N 38°14' E 015°17'2 4.1
2018-Jul-10 08:30N 38°13' E 015°14'0 0.4
2018-Jul-10 08:00N 38°13' E 015°15'4 1.0
2018-Jul-10 04:17N 38°16' E 015°16'413.1
2018-Jul-10 04:00N 38°13' E 015°14'0 0.0
2018-Jul-10 03:30N 38°13' E 015°14'0 0.0
2018-Jul-09 19:29N 38°13' E 015°14'4 1.0
2018-Jul-09 16:03N 38°16' E 015°16'233.8
2018-Jul-09 16:00N 38°15' E 015°17'2 4.4
2018-Jul-09 15:30N 38°13' E 015°15'3 1.0
2018-Jul-09 12:14N 38°16' E 015°16'314.5
2018-Jul-09 12:00N 38°13' E 015°15'0 0.3
2018-Jul-09 11:30N 38°13' E 015°15'2 4.2
2018-Jul-09 11:00N 38°14' E 015°17'2 0.4
2018-Jul-09 05:18N 38°17' E 015°17'413.6
2018-Jul-09 05:00N 38°13' E 015°14'0 0.2
2018-Jul-09 04:30N 38°13' E 015°15'  

Dump ship's entire track history